Time;durP1;ratioP1;P1;durP2;ratioP2;P2;SDS_P1;SDS_P2;PMS_P1;PMS_P2;Temp;Humidity;BMP_temperature;BMP_pressure;BME280_temperature;BME280_humidity;BME280_pressure;Samples;Min_cycle;Max_cycle;Signal;HPM_P1;HPM_P2
2021/11/13 00:05:02;;;;;;;74.07;31.43;;;;;;;6.17;100.00;100945.75;5136813;57;1143370;-80
2021/11/13 00:10:10;;;;;;;50.50;24.63;;;;;;;6.02;100.00;100953.11;5136978;57;1143207;-79
2021/11/13 00:15:20;;;;;;;89.87;43.60;;;;;;;5.94;100.00;100955.69;5136980;57;1143384;-80
2021/11/13 00:20:26;;;;;;;92.87;44.93;;;;;;;5.85;100.00;100944.30;5137146;57;1141084;-81
2021/11/13 00:25:34;;;;;;;87.50;42.20;;;;;;;5.78;100.00;100943.39;5136922;56;1141066;-81
2021/11/13 00:30:41;;;;;;;92.20;45.27;;;;;;;5.68;100.00;100944.77;5137047;56;1139084;-79
2021/11/13 00:35:47;;;;;;;88.10;42.87;;;;;;;5.63;100.00;100946.33;5136804;56;1141094;-82
2021/11/13 00:40:53;;;;;;;97.17;45.60;;;;;;;5.61;100.00;100946.86;5136873;56;1141149;-80
2021/11/13 00:45:59;;;;;;;101.07;45.17;;;;;;;5.62;100.00;100936.75;5140855;57;1141087;-82
2021/11/13 00:51:05;;;;;;;99.83;44.47;;;;;;;5.57;100.00;100924.32;5141611;55;1141170;-82
2021/11/13 00:56:11;;;;;;;91.07;42.77;;;;;;;5.55;100.00;100920.46;5141487;57;1141026;-82
2021/11/13 01:01:18;;;;;;;91.12;42.80;;;;;;;5.50;100.00;100923.77;5141152;57;1141147;-78
2021/11/13 01:06:24;;;;;;;92.87;39.83;;;;;;;5.47;100.00;100918.70;5141326;57;1139290;-80
2021/11/13 01:11:30;;;;;;;96.93;41.53;;;;;;;5.44;100.00;100893.93;5141404;57;1139169;-80
2021/11/13 01:16:37;;;;;;;97.60;42.93;;;;;;;5.42;100.00;100882.66;5141216;57;1141043;-81
2021/11/13 01:21:43;;;;;;;88.93;40.80;;;;;;;5.45;100.00;100873.80;5141377;56;1141249;-82
2021/11/13 01:26:50;;;;;;;111.97;48.17;;;;;;;5.50;100.00;100873.92;5141223;57;1141334;-79
2021/11/13 01:31:56;;;;;;;98.33;42.57;;;;;;;5.49;100.00;100878.81;5141415;57;1141135;-77
2021/11/13 01:37:02;;;;;;;91.80;41.17;;;;;;;5.49;100.00;100871.41;5142108;57;1141250;-82
2021/11/13 01:42:09;;;;;;;98.87;46.43;;;;;;;5.49;100.00;100876.19;5141838;57;1139353;-82
2021/11/13 01:47:15;;;;;;;108.93;45.43;;;;;;;5.51;100.00;100867.75;5157735;57;21627;-84
2021/11/13 01:52:21;;;;;;;106.23;45.73;;;;;;;5.50;100.00;100882.29;5137745;56;1139236;-79
2021/11/13 01:57:33;;;;;;;99.90;45.70;;;;;;;5.53;100.00;100892.60;5137139;56;1145175;-80
2021/11/13 02:02:34;;;;;;;110.17;47.13;;;;;;;5.55;100.00;100846.16;5137396;57;1143145;-84
2021/11/13 02:07:40;;;;;;;114.27;47.77;;;;;;;5.53;100.00;100849.31;5137191;56;1143222;-80
2021/11/13 02:12:47;;;;;;;109.53;46.53;;;;;;;5.54;100.00;100842.68;5137233;57;1145236;-78
2021/11/13 02:17:57;;;;;;;110.77;47.27;;;;;;;5.53;100.00;100836.20;5137287;56;1145319;-79
2021/11/13 02:23:07;;;;;;;107.27;46.57;;;;;;;5.47;100.00;100857.52;5137271;57;1143287;-78
2021/11/13 02:28:17;;;;;;;115.20;47.83;;;;;;;5.45;100.00;100861.53;5137137;57;1145298;-79
2021/11/13 02:33:26;;;;;;;112.73;49.40;;;;;;;5.50;100.00;100850.31;5137174;57;1145210;-77
2021/11/13 02:38:36;;;;;;;109.90;45.47;;;;;;;5.50;100.00;100849.50;5137157;57;1145269;-78
2021/11/13 02:43:42;;;;;;;111.80;46.13;;;;;;;5.47;100.00;100826.04;5139111;55;1143210;-81
2021/11/13 02:48:50;;;;;;;108.80;46.63;;;;;;;5.45;100.00;100842.31;5141462;57;1145290;-77
2021/11/13 02:53:56;;;;;;;123.93;50.33;;;;;;;5.47;100.00;100850.96;5141660;55;1145298;-83
2021/11/13 02:59:02;;;;;;;116.50;47.70;;;;;;;5.46;100.00;100845.33;5141752;57;1145281;-77
2021/11/13 03:04:07;;;;;;;122.40;46.23;;;;;;;5.40;100.00;100835.98;5141689;55;1143353;-79
2021/11/13 03:09:13;;;;;;;113.67;44.17;;;;;;;5.37;100.00;100847.09;5141695;57;1145402;-78
2021/11/13 03:14:18;;;;;;;121.80;45.43;;;;;;;5.41;100.00;100843.39;5141542;55;1145222;-82
2021/11/13 03:19:25;;;;;;;135.03;49.50;;;;;;;5.44;100.00;100837.53;5141490;57;1145288;-81
2021/11/13 03:24:31;;;;;;;119.17;43.90;;;;;;;5.37;100.00;100837.91;5141550;57;1143125;-83
2021/11/13 03:29:41;;;;;;;115.67;45.30;;;;;;;5.33;100.00;100834.62;5141701;55;1145324;-81
2021/11/13 03:34:46;;;;;;;122.67;45.23;;;;;;;5.31;100.00;100837.78;5108610;57;1145247;-77
2021/11/13 03:39:52;;;;;;;126.70;47.33;;;;;;;5.32;100.00;100831.61;5066534;57;1145452;-78
2021/11/13 03:45:00;;;;;;;124.80;44.67;;;;;;;5.29;100.00;100839.16;5148814;56;1143017;-84
2021/11/13 03:50:08;;;;;;;115.63;42.90;;;;;;;5.29;100.00;100839.16;5137479;57;1145258;-82
2021/11/13 03:55:14;;;;;;;127.93;47.53;;;;;;;5.34;100.00;100845.95;5137283;57;1145430;-83
2021/11/13 04:00:22;;;;;;;141.63;51.70;;;;;;;5.34;100.00;100841.56;5161913;55;1145277;-83
2021/11/13 04:05:28;;;;;;;126.13;45.30;;;;;;;5.34;100.00;100842.02;5133943;56;1143193;-77
2021/11/13 04:10:34;;;;;;;128.40;45.35;;;;;;;5.35;100.00;100842.41;5134383;57;1145171;-81
2021/11/13 04:15:41;;;;;;;133.03;50.63;;;;;;;5.37;100.00;100834.82;5141508;57;1145171;-79
2021/11/13 04:20:46;;;;;;;123.93;47.57;;;;;;;5.37;100.00;100834.82;5141949;57;1145218;-84
2021/11/13 04:25:53;;;;;;;146.67;50.07;;;;;;;5.38;100.00;100827.34;5141389;55;1143170;-81
2021/11/13 04:30:58;;;;;;;119.47;47.50;;;;;;;5.35;100.00;100814.88;5151224;55;1145255;-82
2021/11/13 04:41:22;;;;;;;138.27;48.17;;;;;;;5.35;100.00;100820.94;5144085;57;1143358;-79
2021/11/13 04:46:28;;;;;;;135.00;48.27;;;;;;;5.33;100.00;100820.66;5058106;56;1140992;-80
2021/11/13 04:51:35;;;;;;;132.70;48.70;;;;;;;5.29;100.00;100822.11;5046941;58;1143483;-80
2021/11/13 04:56:41;;;;;;;142.80;50.27;;;;;;;5.31;100.00;100818.11;5003681;58;1143380;-78
2021/11/13 05:01:46;;;;;;;145.67;49.33;;;;;;;5.33;100.00;100820.19;5047275;58;1143286;-78
2021/11/13 05:06:52;;;;;;;125.43;46.57;;;;;;;5.28;100.00;100824.35;5047348;58;1141169;-79
2021/11/13 05:11:58;;;;;;;130.60;47.57;;;;;;;5.28;100.00;100822.19;5047760;58;1143266;-83
2021/11/13 05:17:04;;;;;;;136.23;47.80;;;;;;;5.25;100.00;100810.54;5047746;58;1143192;-81
2021/11/13 05:22:10;;;;;;;137.77;47.33;;;;;;;5.25;100.00;100815.78;5048094;58;1143198;-82
2021/11/13 05:27:18;;;;;;;149.53;49.08;;;;;;;5.24;100.00;100828.51;5047946;58;1143224;-77
2021/11/13 05:32:23;;;;;;;144.63;50.67;;;;;;;5.22;100.00;100827.27;5048098;57;1141151;-85
2021/11/13 05:37:29;;;;;;;135.43;45.30;;;;;;;5.21;100.00;100817.70;5063107;58;1143497;-79
2021/11/13 05:42:36;;;;;;;138.77;51.90;;;;;;;5.21;100.00;100807.68;5082579;57;1144124;-80
2021/11/13 05:47:43;;;;;;;142.87;49.30;;;;;;;5.24;100.00;100819.33;5081269;58;1143204;-83
2021/11/13 05:52:51;;;;;;;152.77;50.77;;;;;;;5.23;100.00;100817.17;5152944;56;1143730;-79
2021/11/13 05:57:58;;;;;;;157.40;51.37;;;;;;;5.26;100.00;100825.34;5137280;57;1141346;-84
2021/11/13 06:03:04;;;;;;;159.80;53.00;;;;;;;5.28;100.00;100815.64;5137447;57;1141351;-81
2021/11/13 06:08:11;;;;;;;157.60;51.70;;;;;;;5.33;100.00;100818.88;5137568;57;1145315;-82
2021/11/13 06:13:16;;;;;;;171.17;55.40;;;;;;;5.34;100.00;100832.84;5137711;57;1145382;-76
2021/11/13 06:18:22;;;;;;;176.65;55.15;;;;;;;5.32;100.00;100820.27;5137757;57;1143360;-80
2021/11/13 06:23:30;;;;;;;169.47;53.60;;;;;;;5.29;100.00;100827.83;5137856;57;1145340;-79
2021/11/13 06:28:35;;;;;;;167.00;55.77;;;;;;;5.29;100.00;100828.67;5137454;57;1145250;-87
2021/11/13 06:33:42;;;;;;;167.07;54.75;;;;;;;5.38;100.00;100834.36;5137201;57;1145230;-83
2021/11/13 06:38:47;;;;;;;166.87;58.80;;;;;;;5.37;100.00;100823.02;5137426;56;1143173;-78
2021/11/13 06:43:54;;;;;;;150.30;50.47;;;;;;;5.37;100.00;100819.55;5139394;55;1145210;-78
2021/11/13 06:49:00;;;;;;;151.40;54.23;;;;;;;5.39;100.00;100805.89;5141493;57;1145247;-78
2021/11/13 06:54:06;;;;;;;177.10;55.87;;;;;;;5.40;100.00;100805.82;5141579;55;1145238;-82
2021/11/13 06:59:12;;;;;;;162.67;53.87;;;;;;;5.40;100.00;100811.53;5141488;57;1145543;-85
2021/11/13 07:04:19;;;;;;;159.77;54.43;;;;;;;5.37;100.00;100807.75;5122867;57;1145219;-82
2021/11/13 07:09:25;;;;;;;161.40;53.33;;;;;;;5.37;100.00;100807.75;5100332;57;1145294;-81
2021/11/13 07:14:31;;;;;;;164.90;54.63;;;;;;;5.43;100.00;100819.25;5135987;56;1145289;-83
2021/11/13 07:19:38;;;;;;;158.73;53.10;;;;;;;5.43;100.00;100812.69;5141909;57;1143119;-82
2021/11/13 07:24:45;;;;;;;171.77;54.03;;;;;;;5.46;100.00;100812.08;5107952;56;1145369;-82
2021/11/13 07:30:04;;;;;;;183.00;56.77;;;;;;;5.47;100.00;100821.64;5098142;56;1145272;-80
2021/11/13 07:35:06;;;;;;;175.20;55.47;;;;;;;5.44;100.00;100823.56;5112361;56;1145606;-78
2021/11/13 07:40:13;;;;;;;167.18;55.33;;;;;;;5.45;100.00;100821.33;5106433;56;1143104;-76
2021/11/13 07:45:18;;;;;;;151.50;52.83;;;;;;;5.44;100.00;100829.66;5105158;57;1145304;-79
2021/11/13 07:50:25;;;;;;;179.73;55.57;;;;;;;5.44;100.00;100804.74;5101096;56;1145124;-81
2021/11/13 07:55:32;;;;;;;168.40;53.93;;;;;;;5.42;100.00;100816.23;5099209;57;1145386;-81
2021/11/13 08:00:38;;;;;;;181.17;58.93;;;;;;;5.43;100.00;100810.06;5100638;57;1145479;-77
2021/11/13 08:05:44;;;;;;;159.90;53.17;;;;;;;5.46;100.00;100808.14;5105462;57;1145590;-79
2021/11/13 08:10:50;;;;;;;180.43;56.47;;;;;;;5.47;100.00;100814.23;5098381;57;1145382;-79
2021/11/13 08:15:56;;;;;;;144.93;48.90;;;;;;;5.44;100.00;100813.08;5101480;57;1143177;-80
2021/11/13 08:21:03;;;;;;;159.50;53.00;;;;;;;5.41;100.00;100808.83;5113808;56;1145492;-81
2021/11/13 08:26:10;;;;;;;147.83;53.20;;;;;;;5.45;100.00;100821.33;5089988;56;1145243;-82
2021/11/13 08:31:16;;;;;;;156.63;53.50;;;;;;;5.45;100.00;100830.52;5096958;56;1145290;-80
2021/11/13 08:36:22;;;;;;;146.77;49.27;;;;;;;5.43;100.00;100839.77;5113684;57;1143224;-79
2021/11/13 08:41:27;;;;;;;147.73;53.47;;;;;;;5.44;100.00;100836.68;5141389;55;1145555;-78
2021/11/13 08:46:35;;;;;;;142.23;50.13;;;;;;;5.43;100.00;100814.00;5124626;56;1145205;-76
2021/11/13 08:51:40;;;;;;;138.47;52.37;;;;;;;5.46;100.00;100818.63;5105904;57;1145439;-82
2021/11/13 08:56:46;;;;;;;141.07;53.20;;;;;;;5.50;100.00;100861.30;5119705;57;1145240;-85
2021/11/13 09:01:52;;;;;;;147.67;51.83;;;;;;;5.52;100.00;100850.23;5130467;57;1143111;-85
2021/11/13 09:06:59;;;;;;;128.27;51.10;;;;;;;5.54;100.00;100841.83;5085607;57;1145520;-85
2021/11/13 09:12:13;;;;;;;144.07;56.47;;;;;;;5.58;100.00;100837.67;5085736;56;1143439;-86
2021/11/13 09:17:21;;;;;;;149.20;53.68;;;;;;;5.63;100.00;100833.04;5142110;57;1143402;-85
2021/11/13 09:22:27;;;;;;;139.30;53.50;;;;;;;5.65;100.00;100818.53;5141972;57;1140933;-89
2021/11/13 09:27:33;;;;;;;128.17;51.73;;;;;;;5.68;100.00;100832.77;5142299;55;1143226;-90
2021/11/13 09:32:43;;;;;;;149.80;58.23;;;;;;;5.74;100.00;100817.19;5142220;55;1143368;-84
2021/11/13 09:37:48;;;;;;;132.37;50.43;;;;;;;5.75;100.00;100815.80;5142508;55;1143113;-83
2021/11/13 09:42:58;;;;;;;126.83;52.67;;;;;;;5.79;100.00;100823.90;5142718;55;1143410;-87
2021/11/13 09:48:05;;;;;;;136.43;51.55;;;;;;;5.79;100.00;100823.90;5131897;56;1143186;-87
2021/11/13 09:53:11;;;;;;;141.47;53.23;;;;;;;5.83;100.00;100822.78;5086338;57;1143194;-88
2021/11/13 09:58:17;;;;;;;124.97;52.80;;;;;;;5.82;100.00;100818.92;5114887;57;1143335;-84
2021/11/13 10:03:23;;;;;;;129.17;49.40;;;;;;;5.79;100.00;100819.11;5131891;56;1141021;-87
2021/11/13 10:08:30;;;;;;;111.10;47.67;;;;;;;5.77;100.00;100823.13;5131578;56;1143345;-87
2021/11/13 10:13:40;;;;;;;120.27;48.03;;;;;;;5.81;100.00;100818.54;5131202;57;1143690;-86
2021/11/13 10:18:51;;;;;;;117.23;51.23;;;;;;;5.81;100.00;100818.54;5130995;57;1143281;-85
2021/11/13 10:24:13;;;;;;;129.10;55.03;;;;;;;5.81;100.00;100838.22;5130136;56;1139289;-83
2021/11/13 10:29:31;;;;;;;117.30;50.87;;;;;;;5.83;100.00;100826.72;5130910;57;1145134;-84
2021/11/13 10:34:42;;;;;;;113.43;50.93;;;;;;;5.89;100.00;100821.19;5131361;56;1145172;-85
2021/11/13 10:39:49;;;;;;;119.23;48.97;;;;;;;5.89;100.00;100812.47;5099396;57;1145230;-85
2021/11/13 10:44:59;;;;;;;112.77;47.17;;;;;;;5.90;100.00;100823.35;5060554;56;1143105;-85
2021/11/13 10:50:21;;;;;;;107.60;47.63;;;;;;;5.91;100.00;100824.59;5085471;56;1145186;-84
2021/11/13 10:55:27;;;;;;;111.73;51.03;;;;;;;5.91;100.00;100805.36;5141994;55;1145240;-84
2021/11/13 11:00:37;;;;;;;120.37;53.93;;;;;;;6.02;100.00;100813.96;5131080;57;1145453;-85
2021/11/13 11:05:48;;;;;;;112.43;50.50;;;;;;;6.05;100.00;100810.72;5085896;57;1143395;-84
2021/11/13 11:10:54;;;;;;;103.43;44.47;;;;;;;6.10;100.00;100809.16;5130306;57;1145238;-85
2021/11/13 11:16:00;;;;;;;111.80;49.03;;;;;;;6.16;100.00;100816.22;5130425;56;1145173;-84
2021/11/13 11:21:05;;;;;;;103.10;49.20;;;;;;;6.22;100.00;100812.42;5129866;57;1145184;-85
2021/11/13 11:26:18;;;;;;;102.77;46.97;;;;;;;6.25;100.00;100814.42;5123699;57;1143112;-85
2021/11/13 11:31:50;;;;;;;102.82;49.33;;;;;;;6.28;100.00;100808.98;5130534;56;1145371;-84
2021/11/13 11:36:58;;;;;;;113.50;50.43;;;;;;;6.35;100.00;100806.87;5146088;56;1145192;-84
2021/11/13 11:42:05;;;;;;;113.07;49.03;;;;;;;6.34;100.00;100798.61;5108071;57;1145327;-85
2021/11/13 11:47:15;;;;;;;106.83;50.57;;;;;;;6.32;100.00;100791.27;5035711;58;1143148;-85
2021/11/13 11:52:24;;;;;;;115.43;50.57;;;;;;;6.35;100.00;100791.11;5047266;57;1145215;-84
2021/11/13 11:57:40;;;;;;;118.37;53.53;;;;;;;6.44;100.00;100792.36;5047205;58;1145391;-84
2021/11/13 12:02:50;;;;;;;113.83;53.87;;;;;;;6.51;100.00;100785.84;5047137;58;1143153;-85
2021/11/13 12:07:58;;;;;;;121.67;53.83;;;;;;;6.55;100.00;100783.43;5100212;57;1143148;-85
2021/11/13 12:13:14;;;;;;;109.93;47.90;;;;;;;6.56;100.00;100771.98;5130229;56;1141047;-86
2021/11/13 12:18:28;;;;;;;165.07;64.77;;;;;;;6.61;100.00;100772.55;5130202;57;1143324;-84
2021/11/13 12:23:44;;;;;;;123.60;57.40;;;;;;;6.66;100.00;100772.68;5130083;57;1143212;-84
2021/11/13 12:28:55;;;;;;;113.60;55.47;;;;;;;6.70;100.00;100763.69;5130142;57;1143132;-84
2021/11/13 12:34:20;;;;;;;112.90;55.17;;;;;;;6.66;100.00;100762.63;5130203;56;1143377;-84
2021/11/13 12:39:28;;;;;;;101.80;49.80;;;;;;;6.62;100.00;100758.02;5130176;57;1138954;-86
2021/11/13 12:44:44;;;;;;;108.33;49.30;;;;;;;6.62;100.00;100765.05;5183458;56;1145055;-85
2021/11/13 12:49:59;;;;;;;111.08;52.25;;;;;;;6.62;100.00;100765.05;5169785;57;1145248;-85
2021/11/13 12:55:19;;;;;;;115.17;54.40;;;;;;;6.69;100.00;100776.92;5169539;57;1145209;-85
2021/11/13 13:00:31;;;;;;;109.97;54.50;;;;;;;6.69;100.00;100767.72;5169268;56;1145399;-83
2021/11/13 13:05:37;;;;;;;166.53;65.40;;;;;;;6.67;100.00;100763.86;5138419;56;1145199;-84
2021/11/13 13:10:43;;;;;;;112.30;54.50;;;;;;;6.70;100.00;100767.63;5138155;56;1145465;-84
2021/11/13 13:15:58;;;;;;;174.57;79.30;;;;;;;6.73;100.00;100756.54;5138087;56;1145051;-84
2021/11/13 13:21:06;;;;;;;122.10;57.97;;;;;;;6.72;100.00;100762.76;5138098;56;1145480;-86
2021/11/13 13:26:12;;;;;;;110.03;57.83;;;;;;;6.72;100.00;100765.39;5138150;56;1143267;-87
2021/11/13 13:31:18;;;;;;;129.70;56.27;;;;;;;6.76;100.00;100770.82;5138558;56;1145183;-84
2021/11/13 13:36:29;;;;;;;204.47;83.80;;;;;;;6.81;100.00;100779.30;5138683;56;1145187;-85
2021/11/13 13:41:34;;;;;;;123.63;58.20;;;;;;;6.83;100.00;100774.80;5136606;56;1145194;-84
2021/11/13 13:46:42;;;;;;;101.73;50.33;;;;;;;6.85;100.00;100781.67;5066963;57;1143161;-86
2021/11/13 13:51:56;;;;;;;106.70;50.13;;;;;;;6.87;100.00;100785.53;5055602;57;1145206;-83
2021/11/13 13:57:01;;;;;;;131.73;59.90;;;;;;;6.89;100.00;100784.95;5055425;57;1145222;-85
2021/11/13 14:02:20;;;;;;;107.97;52.00;;;;;;;6.93;100.00;100783.38;5055661;57;1145215;-83
2021/11/13 14:07:30;;;;;;;140.77;62.30;;;;;;;6.95;100.00;100787.23;5056310;57;1145213;-84
2021/11/13 14:12:54;;;;;;;151.93;66.40;;;;;;;6.92;100.00;100786.94;5061435;58;1143507;-85
2021/11/13 14:18:15;;;;;;;139.30;67.27;;;;;;;6.93;100.00;100783.84;5055569;57;1145230;-84
2021/11/13 14:23:25;;;;;;;209.47;91.33;;;;;;;6.93;100.00;100783.38;5055491;57;1143170;-84
2021/11/13 14:28:41;;;;;;;152.90;71.17;;;;;;;6.97;100.00;100773.53;5054814;57;1143078;-84
2021/11/13 14:33:55;;;;;;;213.97;91.03;;;;;;;6.95;100.00;100776.25;5055005;57;1143090;-85
2021/11/13 14:39:08;;;;;;;142.90;66.45;;;;;;;6.92;100.00;100772.47;5056236;57;1140987;-85
2021/11/13 14:44:23;;;;;;;161.00;69.63;;;;;;;6.93;100.00;100769.37;5102713;57;1143141;-84
2021/11/13 14:49:36;;;;;;;144.90;69.60;;;;;;;6.97;100.00;100769.59;5139062;56;1143270;-85
2021/11/13 14:54:58;;;;;;;305.98;165.52;;;;;;;6.99;100.00;100765.09;5138827;56;1143267;-86
2021/11/13 15:00:14;;;;;;;138.03;68.10;;;;;;;7.00;100.00;100765.47;5138317;56;1147296;-85
2021/11/13 15:05:25;;;;;;;204.33;99.93;;;;;;;6.97;100.00;100769.13;5138654;56;1143144;-86
2021/11/13 15:10:33;;;;;;;175.53;74.87;;;;;;;6.96;100.00;100768.73;5138501;56;1145319;-83
2021/11/13 15:15:39;;;;;;;126.40;63.13;;;;;;;7.01;100.00;100776.37;5138264;56;1145304;-85
2021/11/13 15:20:50;;;;;;;125.93;63.87;;;;;;;7.04;100.00;100776.16;5138379;57;1145491;-85
2021/11/13 15:25:56;;;;;;;130.27;68.13;;;;;;;7.03;100.00;100781.89;5138389;57;1145118;-85
2021/11/13 15:31:08;;;;;;;155.67;73.87;;;;;;;6.98;100.00;100788.38;5138328;56;1143104;-85
2021/11/13 15:36:19;;;;;;;137.33;65.57;;;;;;;6.97;100.00;100786.21;5138200;56;1143099;-85
2021/11/13 15:41:32;;;;;;;128.57;64.10;;;;;;;6.95;100.00;100784.60;5138417;56;1145247;-86
2021/11/13 15:46:38;;;;;;;181.37;86.13;;;;;;;6.94;100.00;100785.53;4974977;58;1145372;-85
2021/11/13 15:51:44;;;;;;;180.87;77.60;;;;;;;6.93;100.00;100783.38;4994296;57;1145173;-84
2021/11/13 15:56:51;;;;;;;150.97;67.30;;;;;;;6.87;99.65;100789.01;4974782;58;1145487;-85
2021/11/13 16:01:57;;;;;;;151.60;68.20;;;;;;;6.68;98.78;100789.21;4974688;58;1140995;-85
2021/11/13 16:07:02;;;;;;;220.00;87.07;;;;;;;6.54;99.13;100791.78;4974593;57;1141031;-84
2021/11/13 16:12:08;;;;;;;306.93;119.37;;;;;;;6.47;99.25;100790.88;4974627;58;1143066;-85
2021/11/13 16:17:14;;;;;;;304.87;134.90;;;;;;;6.44;99.27;100794.52;4974495;57;1145586;-84
2021/11/13 16:22:20;;;;;;;292.87;137.30;;;;;;;6.40;99.27;100794.34;4974765;58;1145271;-85
2021/11/13 16:27:26;;;;;;;376.93;177.77;;;;;;;6.35;99.37;100784.54;4999916;58;1145431;-85
2021/11/13 16:32:35;;;;;;;405.67;179.10;;;;;;;6.26;99.17;100789.82;5001446;58;1143052;-84
2021/11/13 16:38:13;;;;;;;362.77;155.97;;;;;;;6.21;99.12;100796.28;4974664;58;1145234;-84
2021/11/13 16:43:21;;;;;;;593.47;274.40;;;;;;;6.20;99.12;100799.84;5044885;57;1145219;-85
2021/11/13 16:48:29;;;;;;;522.93;254.83;;;;;;;6.11;98.64;100801.17;5217760;55;1145449;-86
2021/11/13 16:53:36;;;;;;;513.87;248.83;;;;;;;6.09;99.36;100808.77;5075838;57;1143402;-87
2021/11/13 16:58:42;;;;;;;482.73;218.77;;;;;;;6.07;99.62;100806.70;5055401;57;1141036;-86
2021/11/13 17:03:49;;;;;;;423.17;188.70;;;;;;;6.09;99.37;100816.66;5055907;57;1143403;-85
2021/11/13 17:08:58;;;;;;;375.33;156.90;;;;;;;6.06;99.07;100812.87;5067174;57;1143006;-85
2021/11/13 17:14:05;;;;;;;409.17;181.73;;;;;;;6.04;99.03;100824.77;5031200;57;1143061;-87
2021/11/13 17:19:14;;;;;;;430.20;194.33;;;;;;;5.88;98.25;100831.73;5044669;58;1141031;-85
2021/11/13 17:24:20;;;;;;;399.27;182.90;;;;;;;5.69;97.96;100832.31;5054318;57;1141153;-84
2021/11/13 17:29:26;;;;;;;332.47;139.27;;;;;;;5.61;98.80;100839.29;5055910;57;1141386;-85
2021/11/13 17:34:32;;;;;;;295.97;130.27;;;;;;;5.58;98.56;100835.05;5056164;57;1143088;-86
2021/11/13 17:39:38;;;;;;;244.83;111.97;;;;;;;5.55;98.54;100834.34;5056042;56;1143173;-85
2021/11/13 17:44:44;;;;;;;223.47;105.97;;;;;;;5.56;98.63;100842.60;5056184;57;1143211;-85
2021/11/13 17:49:50;;;;;;;247.63;111.63;;;;;;;5.46;98.17;100854.51;5056194;57;1140855;-85
2021/11/13 17:54:56;;;;;;;214.10;96.73;;;;;;;5.43;99.10;100855.50;5055981;57;1141136;-86
2021/11/13 18:00:05;;;;;;;178.30;83.57;;;;;;;5.42;99.11;100855.58;5056069;57;1139032;-85
2021/11/13 18:05:14;;;;;;;196.30;80.93;;;;;;;5.41;98.91;100846.02;5055867;58;1141032;-84
2021/11/13 18:10:25;;;;;;;178.97;82.33;;;;;;;5.36;98.48;100849.33;5056001;57;1141441;-85
2021/11/13 18:15:31;;;;;;;178.03;86.27;;;;;;;5.33;98.18;100860.00;5055805;57;1139005;-85
2021/11/13 18:20:37;;;;;;;175.73;81.80;;;;;;;5.29;98.68;100856.20;5075412;58;21181;-84
2021/11/13 18:25:44;;;;;;;206.53;83.13;;;;;;;5.24;98.81;100861.28;5053761;58;1136805;-86
2021/11/13 18:30:52;;;;;;;147.00;65.97;;;;;;;5.24;98.56;100871.31;5055953;57;1143049;-86
2021/11/13 18:35:59;;;;;;;127.72;58.95;;;;;;;5.20;98.04;100878.94;5055817;57;1143069;-88
2021/11/13 18:41:05;;;;;;;127.57;61.33;;;;;;;5.17;98.46;100874.33;5055592;58;1143131;-86
2021/11/13 18:46:11;;;;;;;132.17;62.33;;;;;;;5.16;98.72;100876.56;5055247;58;1141175;-85
2021/11/13 18:51:19;;;;;;;137.23;67.30;;;;;;;5.10;98.51;100876.86;5055402;57;1141015;-87
2021/11/13 18:56:24;;;;;;;136.53;63.60;;;;;;;4.97;98.04;100873.14;5055227;57;1141002;-85
2021/11/13 19:01:30;;;;;;;130.50;57.23;;;;;;;4.93;98.56;100882.45;5055448;58;1141259;-86
2021/11/13 19:06:35;;;;;;;130.87;60.30;;;;;;;4.99;98.67;100883.94;5055250;57;1143139;-85
2021/11/13 19:11:42;;;;;;;155.33;71.23;;;;;;;5.03;98.70;100890.74;5055538;58;1143295;-85
2021/11/13 19:16:48;;;;;;;148.40;68.83;;;;;;;4.99;98.32;100896.20;5055176;57;1141085;-87
2021/11/13 19:21:54;;;;;;;138.25;65.47;;;;;;;4.88;98.12;100901.97;5059146;57;1141052;-84
2021/11/13 19:27:01;;;;;;;144.57;64.90;;;;;;;4.72;97.83;100905.78;5053237;57;1141231;-85
2021/11/13 19:32:07;;;;;;;146.70;70.07;;;;;;;4.78;98.55;100908.55;5055405;57;1143400;-85
2021/11/13 19:37:13;;;;;;;116.00;55.43;;;;;;;4.76;98.66;100903.84;5055218;57;1143249;-87
2021/11/13 19:42:19;;;;;;;109.23;50.83;;;;;;;4.80;98.94;100906.70;5055203;57;1141147;-86
2021/11/13 19:47:25;;;;;;;100.43;47.37;;;;;;;4.78;98.99;100902.00;5055300;58;1140980;-85
2021/11/13 19:52:31;;;;;;;91.97;43.90;;;;;;;4.75;98.91;100899.52;5055145;58;1140949;-86
2021/11/13 19:57:37;;;;;;;104.53;51.23;;;;;;;4.79;98.83;100907.17;5055521;58;1141102;-87
2021/11/13 20:02:43;;;;;;;112.90;55.20;;;;;;;4.79;98.69;100907.63;5055258;57;1143135;-85
2021/11/13 20:07:49;;;;;;;117.30;54.17;;;;;;;4.84;99.62;100915.67;5055439;58;1143152;-84
2021/11/13 20:12:55;;;;;;;179.80;82.47;;;;;;;4.93;99.99;100916.98;5056114;57;1141010;-86
2021/11/13 20:18:01;;;;;;;158.07;70.20;;;;;;;4.94;99.86;100918.69;5055893;57;1141007;-87
2021/11/13 20:23:07;;;;;;;133.67;58.93;;;;;;;4.95;99.46;100914.69;5055365;57;1143115;-84
2021/11/13 20:28:13;;;;;;;160.70;71.73;;;;;;;4.93;99.23;100916.53;5055387;57;1143099;-86
2021/11/13 20:33:21;;;;;;;138.73;61.30;;;;;;;4.93;99.17;100923.55;5055516;57;1143115;-85
2021/11/13 20:38:32;;;;;;;107.33;54.20;;;;;;;4.85;98.64;100929.63;5055316;57;1141109;-85
2021/11/13 20:43:39;;;;;;;114.83;53.73;;;;;;;4.72;98.83;100939.84;5091546;57;1141301;-85
2021/11/13 20:48:46;;;;;;;118.65;54.90;;;;;;;4.69;99.03;100934.73;5138248;56;1141246;-86
2021/11/13 20:53:52;;;;;;;107.93;53.13;;;;;;;4.68;98.83;100939.59;5138272;57;1143429;-85
2021/11/13 20:58:58;;;;;;;121.20;57.17;;;;;;;4.64;98.93;100939.78;5138182;57;1143194;-86
2021/11/13 21:04:04;;;;;;;115.17;53.77;;;;;;;4.70;99.86;100946.06;5138201;56;1141018;-85
2021/11/13 21:09:10;;;;;;;117.17;53.93;;;;;;;4.69;99.51;100936.05;5138091;56;1140989;-87
2021/11/13 21:14:17;;;;;;;117.40;53.83;;;;;;;4.57;98.90;100944.02;5138312;56;1141170;-86
2021/11/13 21:19:25;;;;;;;114.43;54.37;;;;;;;4.56;99.15;100944.09;5138136;56;1141084;-85
2021/11/13 21:24:32;;;;;;;138.20;59.60;;;;;;;4.59;99.44;100940.84;5138140;56;1143188;-84
2021/11/13 21:29:39;;;;;;;115.07;52.80;;;;;;;4.65;99.55;100941.48;5138310;57;1140993;-84
2021/11/13 21:34:46;;;;;;;133.07;60.67;;;;;;;4.64;99.21;100935.86;5138191;57;1139017;-85
2021/11/13 21:39:51;;;;;;;133.17;61.00;;;;;;;4.58;99.31;100942.25;5138327;56;1139038;-86
2021/11/13 21:44:57;;;;;;;137.47;60.47;;;;;;;4.50;99.09;100937.34;5079806;57;1138866;-87
2021/11/13 21:50:07;;;;;;;129.00;56.80;;;;;;;4.45;98.67;100943.25;5055474;57;1139255;-84
2021/11/13 21:55:22;;;;;;;147.83;66.80;;;;;;;4.40;98.68;100936.08;5055963;57;1141303;-85
2021/11/13 22:00:27;;;;;;;151.27;69.30;;;;;;;4.47;99.49;100934.02;5055819;57;1141094;-84
2021/11/13 22:05:36;;;;;;;144.90;65.33;;;;;;;4.50;99.71;100937.34;5056191;57;1139030;-85
2021/11/13 22:10:43;;;;;;;140.50;60.13;;;;;;;4.51;99.50;100944.75;5055963;57;1138961;-86
2021/11/13 22:15:50;;;;;;;161.23;68.53;;;;;;;4.45;98.90;100945.86;5055668;58;1139029;-85
2021/11/13 22:20:56;;;;;;;133.23;58.97;;;;;;;4.35;98.88;100958.99;5055559;57;1138963;-85
2021/11/13 22:26:02;;;;;;;114.77;53.13;;;;;;;4.32;98.44;100959.58;5055658;57;1139047;-86
2021/11/13 22:31:08;;;;;;;105.37;49.47;;;;;;;4.31;98.39;100961.35;5049427;58;1141233;-84
2021/11/13 22:36:14;;;;;;;124.57;55.60;;;;;;;4.24;98.22;100963.41;5024152;57;1139154;-85
2021/11/13 22:41:20;;;;;;;119.57;53.60;;;;;;;4.20;98.35;100968.84;4981966;58;1136938;-86
2021/11/13 22:46:29;;;;;;;119.83;53.73;;;;;;;4.13;97.94;100964.77;5082715;57;1136854;-84